createdAt,value
2022-10-01T00:02:07.292Z,35.70
2022-10-01T00:04:37.286Z,33.72
2022-10-01T00:07:14.979Z,35.25
2022-10-01T00:09:44.537Z,38.33
2022-10-01T00:12:16.708Z,38.75
2022-10-01T00:17:11.927Z,36.67
2022-10-01T00:19:41.231Z,39.00
2022-10-01T00:22:10.870Z,50.65
2022-10-01T00:24:38.758Z,43.97
2022-10-01T00:27:08.123Z,38.95
2022-10-01T00:29:37.701Z,44.97
2022-10-01T00:32:05.051Z,44.70
2022-10-01T00:34:32.246Z,41.95
2022-10-01T00:36:59.413Z,42.03
2022-10-01T00:39:29.180Z,42.88
2022-10-01T00:41:56.277Z,37.20
2022-10-01T00:44:38.671Z,37.17
2022-10-01T00:47:38.275Z,43.70
2022-10-01T00:50:26.432Z,47.63
2022-10-01T00:53:03.600Z,45.47
2022-10-01T00:55:41.016Z,42.78
2022-10-01T00:58:18.272Z,40.33
2022-10-01T01:00:46.311Z,48.92
2022-10-01T01:03:14.796Z,42.55
2022-10-01T01:05:41.914Z,48.35
2022-10-01T01:08:10.076Z,46.15
2022-10-01T01:10:49.483Z,43.10
2022-10-01T01:13:32.671Z,42.33
2022-10-01T01:16:12.839Z,53.53
2022-10-01T01:19:18.477Z,47.65
2022-10-01T01:21:48.927Z,44.20
2022-10-01T01:24:37.500Z,42.20
2022-10-01T01:27:23.736Z,54.00
2022-10-01T01:30:04.433Z,44.65
2022-10-01T01:33:02.384Z,47.50
2022-10-01T01:35:34.746Z,44.25
2022-10-01T01:38:10.241Z,44.97
2022-10-01T01:40:39.717Z,46.13
2022-10-01T01:43:14.096Z,38.72
2022-10-01T01:45:44.761Z,38.95
2022-10-01T01:48:13.172Z,43.85
2022-10-01T01:51:14.150Z,42.95
2022-10-01T01:53:44.276Z,37.80
2022-10-01T01:56:14.203Z,52.58
2022-10-01T01:58:47.603Z,45.65
2022-10-01T02:01:34.764Z,47.42
2022-10-01T02:04:09.940Z,36.33
2022-10-01T02:07:18.497Z,44.15
2022-10-01T02:09:59.063Z,38.35
2022-10-01T02:12:51.436Z,39.58
2022-10-01T02:15:38.945Z,38.00
2022-10-01T02:18:26.073Z,40.05
2022-10-01T02:21:24.104Z,38.47
2022-10-01T02:24:01.389Z,42.20
2022-10-01T02:26:31.328Z,40.80
2022-10-01T02:29:05.580Z,45.88
2022-10-01T02:31:33.628Z,39.97
2022-10-01T02:34:08.610Z,40.38
2022-10-01T02:36:42.105Z,49.25
2022-10-01T02:39:13.078Z,42.53
2022-10-01T02:41:43.047Z,43.45
2022-10-01T02:44:21.224Z,45.38
2022-10-01T02:47:00.414Z,41.05
2022-10-01T02:49:30.893Z,45.78
2022-10-01T02:52:06.354Z,44.45
2022-10-01T02:54:48.742Z,45.72
2022-10-01T02:57:22.997Z,42.72
2022-10-01T02:59:59.967Z,41.45
2022-10-01T03:02:31.659Z,47.30
2022-10-01T03:04:59.645Z,42.78
2022-10-01T03:07:31.371Z,37.42
2022-10-01T03:10:01.803Z,43.85
2022-10-01T03:12:34.273Z,43.70
2022-10-01T03:15:02.577Z,43.28
2022-10-01T03:17:32.630Z,37.65
2022-10-01T03:20:00.194Z,42.63
2022-10-01T03:22:27.386Z,47.75
2022-10-01T03:24:54.889Z,50.72
2022-10-01T03:27:26.495Z,39.33
2022-10-01T03:29:58.527Z,47.35
2022-10-01T03:34:55.959Z,45.45
2022-10-01T03:37:25.814Z,45.90
2022-10-01T03:39:53.074Z,49.70
2022-10-01T03:42:24.781Z,46.10
2022-10-01T03:44:53.129Z,41.95
2022-10-01T03:47:22.180Z,43.28
2022-10-01T03:49:51.613Z,47.78
2022-10-01T03:52:21.336Z,49.60
2022-10-01T03:54:48.474Z,43.10
2022-10-01T03:57:15.681Z,46.08
2022-10-01T03:59:47.811Z,44.00
2022-10-01T04:02:17.305Z,49.08
2022-10-01T04:04:44.602Z,42.17
2022-10-01T04:07:14.414Z,39.50
2022-10-01T04:09:41.485Z,46.63
2022-10-01T04:12:09.557Z,41.92
2022-10-01T04:14:36.807Z,44.42
2022-10-01T04:17:04.026Z,41.10
2022-10-01T04:19:31.222Z,46.03
2022-10-01T04:22:00.737Z,41.33
2022-10-01T04:24:30.410Z,41.03
2022-10-01T04:26:59.810Z,50.58
2022-10-01T04:29:29.295Z,47.53
2022-10-01T04:31:58.185Z,44.70
2022-10-01T04:34:47.502Z,39.88
2022-10-01T04:37:17.758Z,42.03
2022-10-01T04:39:47.761Z,47.88
2022-10-01T04:42:20.698Z,46.78
2022-10-01T04:44:48.216Z,43.70
2022-10-01T04:47:17.730Z,49.47
2022-10-01T04:49:44.807Z,45.67
2022-10-01T04:52:12.224Z,49.63
2022-10-01T04:54:41.747Z,49.85
2022-10-01T04:57:12.260Z,39.33
2022-10-01T04:59:39.616Z,43.28
2022-10-01T05:02:06.939Z,50.20
2022-10-01T05:04:34.346Z,43.45
2022-10-01T05:07:01.699Z,53.55
2022-10-01T05:09:28.757Z,44.40
2022-10-01T05:12:03.241Z,42.95
2022-10-01T05:14:31.353Z,47.35
2022-10-01T05:17:00.733Z,48.22
2022-10-01T05:19:29.634Z,49.13
2022-10-01T05:21:57.112Z,42.70
2022-10-01T05:24:24.251Z,47.22
2022-10-01T05:26:53.993Z,45.25
2022-10-01T05:29:26.304Z,47.35
2022-10-01T05:31:53.501Z,51.55
2022-10-01T05:34:22.901Z,48.03
2022-10-01T05:36:50.219Z,44.88
2022-10-01T05:39:19.398Z,54.42
2022-10-01T05:41:46.594Z,51.72
2022-10-01T05:44:13.871Z,47.78
2022-10-01T05:46:41.239Z,57.38
2022-10-01T05:49:13.130Z,52.20
2022-10-01T05:51:40.374Z,60.42
2022-10-01T05:54:08.335Z,64.60
2022-10-01T05:56:38.293Z,69.82
2022-10-01T05:59:06.103Z,93.28
2022-10-01T06:01:35.856Z,80.20
2022-10-01T06:06:32.791Z,63.70
2022-10-01T06:09:04.573Z,75.07
2022-10-01T06:11:32.040Z,89.18
2022-10-01T06:14:01.777Z,78.03
2022-10-01T06:16:29.210Z,69.38
2022-10-01T06:18:57.750Z,102.97
2022-10-01T06:21:26.319Z,64.20
2022-10-01T06:23:57.962Z,81.55
2022-10-01T06:26:28.523Z,56.90
2022-10-01T06:28:57.890Z,66.53
2022-10-01T06:31:30.610Z,75.68
2022-10-01T06:34:00.078Z,51.05
2022-10-01T06:36:27.142Z,75.82
2022-10-01T06:38:56.810Z,104.03
2022-10-01T06:41:26.546Z,118.50
2022-10-01T06:43:53.681Z,95.90
2022-10-01T06:46:23.353Z,117.88
2022-10-01T06:48:50.708Z,103.68
2022-10-01T06:51:41.295Z,90.72
2022-10-01T06:54:08.991Z,99.18
2022-10-01T06:56:38.665Z,104.43
2022-10-01T06:59:08.619Z,88.10
2022-10-01T07:01:38.614Z,119.53
2022-10-01T07:04:06.294Z,112.53
2022-10-01T07:06:33.418Z,86.53
2022-10-01T07:09:03.546Z,120.68
2022-10-01T07:11:31.465Z,89.55
2022-10-01T07:14:05.791Z,82.88
2022-10-01T07:16:34.009Z,89.07
2022-10-01T07:19:01.074Z,98.20
2022-10-01T07:21:28.279Z,94.68
2022-10-01T07:23:55.590Z,110.35
2022-10-01T07:26:22.657Z,88.75
2022-10-01T07:28:52.572Z,96.22
2022-10-01T07:31:20.093Z,90.57
2022-10-01T07:33:49.971Z,92.38
2022-10-01T07:36:17.031Z,103.15
2022-10-01T07:38:45.892Z,109.97
2022-10-01T07:41:13.066Z,108.40
2022-10-01T07:43:46.761Z,102.38
2022-10-01T07:46:16.405Z,99.97
2022-10-01T07:48:48.916Z,101.18
2022-10-01T07:51:16.002Z,109.85
2022-10-01T07:53:45.867Z,99.03
2022-10-01T07:56:14.014Z,98.88
2022-10-01T07:58:41.283Z,98.85
2022-10-01T08:01:09.618Z,105.00
2022-10-01T08:03:39.315Z,90.57
2022-10-01T08:06:11.097Z,91.70
2022-10-01T08:08:41.830Z,84.72
2022-10-01T08:11:14.505Z,92.57
2022-10-01T08:13:41.825Z,86.22
2022-10-01T08:16:14.532Z,88.43
2022-10-01T08:18:41.731Z,92.28
2022-10-01T08:21:14.419Z,88.30
2022-10-01T08:23:43.934Z,89.68
2022-10-01T08:26:13.509Z,91.43
2022-10-01T08:28:43.041Z,81.13
2022-10-01T08:31:12.694Z,92.43
2022-10-01T08:33:42.064Z,90.15
2022-10-01T08:36:09.247Z,96.38
2022-10-01T08:38:40.231Z,102.97
2022-10-01T08:41:33.353Z,98.05
2022-10-01T08:44:03.894Z,98.65
2022-10-01T08:46:35.119Z,103.28
2022-10-01T08:49:17.083Z,100.13
2022-10-01T08:52:00.001Z,94.97
2022-10-01T08:54:44.681Z,96.05
2022-10-01T08:57:24.763Z,104.45
2022-10-01T08:59:53.831Z,93.65
2022-10-01T09:02:31.568Z,86.60
2022-10-01T09:05:12.412Z,257.17
2022-10-01T09:07:48.414Z,156.57
2022-10-01T09:10:26.424Z,93.05
2022-10-01T09:12:58.554Z,80.20
2022-10-01T09:15:47.439Z,84.93
2022-10-01T09:18:15.781Z,74.55
2022-10-01T09:20:51.974Z,68.18
2022-10-01T09:23:22.246Z,61.50
2022-10-01T09:25:51.337Z,60.45
2022-10-01T09:28:23.514Z,63.63
2022-10-01T09:31:11.952Z,59.78
2022-10-01T09:33:42.890Z,64.55
2022-10-01T09:36:34.484Z,60.55
2022-10-01T09:39:13.745Z,58.10
2022-10-01T09:41:46.247Z,55.10
2022-10-01T09:44:20.931Z,49.75
2022-10-01T09:46:48.346Z,48.97
2022-10-01T09:49:30.195Z,42.75
2022-10-01T09:52:03.973Z,45.72
2022-10-01T09:54:38.218Z,39.08
2022-10-01T09:57:20.668Z,41.83
2022-10-01T10:00:10.658Z,42.35
2022-10-01T10:02:48.975Z,44.60
2022-10-01T10:05:24.909Z,40.92
2022-10-01T10:08:04.292Z,41.08
2022-10-01T10:10:35.915Z,42.08
2022-10-01T10:13:17.735Z,32.60
2022-10-01T10:15:58.899Z,46.35
2022-10-01T10:18:35.495Z,37.88
2022-10-01T10:21:08.031Z,33.22
2022-10-01T10:23:45.949Z,32.10
2022-10-01T10:26:22.366Z,33.92
2022-10-01T10:28:51.926Z,36.95
2022-10-01T10:31:25.337Z,36.55
2022-10-01T10:34:16.185Z,32.63
2022-10-01T10:36:45.199Z,30.58
2022-10-01T10:39:29.413Z,26.38
2022-10-01T10:41:58.945Z,24.98
2022-10-01T10:44:31.703Z,29.00
2022-10-01T10:49:33.470Z,28.08
2022-10-01T10:52:02.041Z,27.00
2022-10-01T10:54:40.522Z,28.20
2022-10-01T10:57:28.496Z,33.33
2022-10-01T11:00:11.753Z,29.38
2022-10-01T11:02:41.387Z,23.27
2022-10-01T11:05:20.359Z,29.98
2022-10-01T11:07:55.806Z,27.48
2022-10-01T11:10:57.292Z,29.58
2022-10-01T11:13:54.708Z,26.45
2022-10-01T11:16:52.299Z,31.23
2022-10-01T11:19:30.675Z,30.33
2022-10-01T11:22:25.565Z,31.75
2022-10-01T11:25:35.817Z,27.48
2022-10-01T11:28:11.206Z,29.08
2022-10-01T11:30:56.327Z,26.27
2022-10-01T11:33:44.899Z,28.08
2022-10-01T11:36:26.890Z,23.38
2022-10-01T11:39:12.802Z,23.83
2022-10-01T11:41:48.954Z,24.60
2022-10-01T11:44:32.281Z,21.13
2022-10-01T11:47:01.673Z,22.25
2022-10-01T11:49:45.258Z,21.70
2022-10-01T11:52:19.677Z,23.52
2022-10-01T11:55:24.752Z,22.45
2022-10-01T11:58:17.081Z,25.88
2022-10-01T12:01:14.254Z,20.00
2022-10-01T12:04:00.567Z,29.77
2022-10-01T12:06:45.971Z,20.60
2022-10-01T12:09:14.184Z,24.13
2022-10-01T12:12:19.295Z,21.30
2022-10-01T12:15:06.685Z,20.70
2022-10-01T12:17:56.041Z,18.88
2022-10-01T12:20:43.089Z,27.48
2022-10-01T12:23:44.364Z,24.40
2022-10-01T12:26:34.913Z,24.42
2022-10-01T12:29:36.329Z,20.38
2022-10-01T12:32:27.554Z,24.08
2022-10-01T12:35:06.675Z,19.38
2022-10-01T12:37:40.959Z,18.73
2022-10-01T12:40:18.061Z,21.38
2022-10-01T12:43:14.127Z,19.48
2022-10-01T12:45:56.135Z,18.50
2022-10-01T12:48:32.346Z,18.75
2022-10-01T12:51:27.506Z,17.90
2022-10-01T12:54:26.181Z,18.23
2022-10-01T12:57:11.123Z,19.92
2022-10-01T13:00:04.981Z,23.65
2022-10-01T13:02:53.269Z,23.10
2022-10-01T13:05:48.874Z,21.33
2022-10-01T13:08:16.186Z,21.00
2022-10-01T13:11:03.505Z,21.77
2022-10-01T13:13:33.813Z,22.90
2022-10-01T13:16:11.073Z,23.73
2022-10-01T13:18:38.405Z,29.52
2022-10-01T13:21:24.122Z,23.77
2022-10-01T13:24:03.169Z,23.38
2022-10-01T13:27:08.316Z,18.33
2022-10-01T13:29:54.757Z,19.98
2022-10-01T13:32:34.059Z,19.08
2022-10-01T13:35:21.566Z,18.65
2022-10-01T13:37:51.402Z,20.00
2022-10-01T13:40:33.955Z,24.85
2022-10-01T13:45:54.607Z,23.05
2022-10-01T13:48:33.327Z,28.35
2022-10-01T13:51:11.641Z,31.08
2022-10-01T13:53:41.674Z,37.50
2022-10-01T13:56:12.955Z,37.90
2022-10-01T13:58:47.594Z,41.63
2022-10-01T14:01:24.033Z,43.63
2022-10-01T14:04:01.446Z,47.83
2022-10-01T14:06:41.757Z,62.03
2022-10-01T14:09:32.017Z,41.55
2022-10-01T14:12:26.066Z,51.67
2022-10-01T14:15:17.598Z,44.10
2022-10-01T14:17:55.868Z,35.13
2022-10-01T14:20:34.167Z,35.03
2022-10-01T14:23:12.662Z,27.05
2022-10-01T14:25:43.550Z,35.45
2022-10-01T14:28:27.200Z,24.48
2022-10-01T14:31:14.415Z,22.63
2022-10-01T14:34:27.733Z,27.10
2022-10-01T14:36:56.218Z,29.67
2022-10-01T14:39:33.823Z,23.55
2022-10-01T14:42:17.112Z,19.45
2022-10-01T14:44:46.782Z,22.08
2022-10-01T14:47:22.187Z,29.35
2022-10-01T14:49:51.738Z,27.17
2022-10-01T14:52:31.361Z,23.15
2022-10-01T14:57:44.807Z,24.02
2022-10-01T15:00:30.259Z,27.13
2022-10-01T15:03:15.054Z,24.63
2022-10-01T15:05:46.914Z,24.75
2022-10-01T15:08:44.331Z,22.45
2022-10-01T15:11:26.808Z,24.50
2022-10-01T15:13:57.278Z,22.33
2022-10-01T15:16:27.881Z,25.30
2022-10-01T15:19:03.284Z,22.50
2022-10-01T15:21:42.456Z,24.77
2022-10-01T15:24:24.500Z,26.23
2022-10-01T15:27:00.702Z,28.75
2022-10-01T15:29:30.385Z,22.42
2022-10-01T15:32:07.423Z,23.80
2022-10-01T15:34:51.950Z,25.02
2022-10-01T15:37:33.991Z,25.83
2022-10-01T15:40:13.070Z,28.17
2022-10-01T15:43:12.601Z,22.98
2022-10-01T15:45:47.758Z,22.30
2022-10-01T15:48:30.416Z,21.50
2022-10-01T15:51:05.929Z,24.52
2022-10-01T15:53:37.022Z,29.67
2022-10-01T15:56:32.884Z,20.63
2022-10-01T15:59:12.776Z,23.55
2022-10-01T16:01:41.693Z,22.80
2022-10-01T16:04:14.591Z,26.33
2022-10-01T16:06:52.066Z,24.58
2022-10-01T16:09:24.613Z,31.90
2022-10-01T16:12:26.038Z,24.83
2022-10-01T16:15:07.275Z,26.67
2022-10-01T16:17:53.757Z,32.58
2022-10-01T16:21:05.465Z,27.00
2022-10-01T16:23:58.379Z,31.75
2022-10-01T16:26:38.582Z,32.45
2022-10-01T16:29:22.548Z,29.20
2022-10-01T16:31:54.213Z,29.63
2022-10-01T16:34:22.512Z,33.17
2022-10-01T16:36:50.518Z,30.58
2022-10-01T16:39:21.530Z,36.60
2022-10-01T16:42:06.328Z,37.83
2022-10-01T16:44:41.861Z,28.98
2022-10-01T16:47:11.390Z,33.95
2022-10-01T16:49:38.640Z,27.42
2022-10-01T16:52:06.308Z,32.75
2022-10-01T16:54:35.930Z,29.05
2022-10-01T16:57:06.758Z,32.33
2022-10-01T16:59:37.228Z,32.45
2022-10-01T17:02:04.691Z,36.40
2022-10-01T17:04:34.357Z,32.65
2022-10-01T17:07:01.952Z,43.05
2022-10-01T17:09:33.964Z,41.22
2022-10-01T17:12:01.871Z,36.55
2022-10-01T17:14:32.289Z,36.88
2022-10-01T17:16:59.636Z,40.88
2022-10-01T17:19:29.367Z,40.60
2022-10-01T17:21:59.229Z,41.92
2022-10-01T17:24:26.962Z,39.97
2022-10-01T17:26:57.335Z,43.88
2022-10-01T17:29:27.338Z,33.67
2022-10-01T17:31:54.563Z,37.70
2022-10-01T17:34:22.086Z,39.95
2022-10-01T17:36:49.458Z,42.58
2022-10-01T17:39:18.977Z,42.90
2022-10-01T17:41:48.155Z,48.58
2022-10-01T17:44:15.607Z,43.17
2022-10-01T17:46:45.317Z,44.42
2022-10-01T17:49:16.207Z,49.63
2022-10-01T17:51:43.541Z,48.25
2022-10-01T17:54:15.578Z,51.47
2022-10-01T17:56:44.158Z,49.90
2022-10-01T17:59:11.539Z,48.75
2022-10-01T18:01:40.129Z,44.67
2022-10-01T18:04:12.433Z,47.40
2022-10-01T18:06:41.834Z,46.58
2022-10-01T18:09:09.396Z,42.35
2022-10-01T18:11:39.511Z,44.83
2022-10-01T18:14:07.825Z,38.22
2022-10-01T18:16:35.813Z,54.17
2022-10-01T18:21:51.855Z,56.53
2022-10-01T18:24:21.740Z,80.70
2022-10-01T18:26:49.440Z,81.53
2022-10-01T18:29:22.780Z,83.53
2022-10-01T18:31:56.082Z,75.05
2022-10-01T18:34:29.884Z,68.30
2022-10-01T18:37:01.086Z,80.57
2022-10-01T18:39:38.782Z,72.88
2022-10-01T18:42:21.083Z,73.38
2022-10-01T18:44:58.414Z,93.18
2022-10-01T18:47:43.685Z,99.97
2022-10-01T18:50:37.808Z,81.97
2022-10-01T18:53:12.692Z,59.40
2022-10-01T18:56:18.561Z,48.28
2022-10-01T18:58:59.529Z,23.40
2022-10-01T19:01:38.358Z,16.48
2022-10-01T19:04:32.509Z,13.13
2022-10-01T19:07:09.497Z,12.32
2022-10-01T19:09:45.533Z,12.60
2022-10-01T19:12:35.137Z,9.18
2022-10-01T19:15:23.586Z,9.68
2022-10-01T19:18:29.937Z,10.10
2022-10-01T19:21:06.007Z,12.43
2022-10-01T19:23:54.492Z,7.70
2022-10-01T19:26:45.080Z,5.93
2022-10-01T19:29:30.502Z,6.55
2022-10-01T19:34:28.534Z,7.97
2022-10-01T19:37:04.794Z,7.15
2022-10-01T19:39:38.526Z,5.78
2022-10-01T19:42:19.941Z,5.28
2022-10-01T19:44:54.650Z,11.55
2022-10-01T19:47:34.900Z,10.02
2022-10-01T19:50:33.757Z,7.20
2022-10-01T19:53:03.404Z,7.43
2022-10-01T19:55:38.847Z,6.35
2022-10-01T19:58:18.679Z,6.30
2022-10-01T20:00:52.648Z,7.70
2022-10-01T20:03:26.601Z,9.07
2022-10-01T20:06:00.026Z,8.38
2022-10-01T20:08:36.340Z,7.47
2022-10-01T20:11:21.267Z,9.65
2022-10-01T20:14:07.130Z,8.05
2022-10-01T20:16:41.749Z,9.18
2022-10-01T20:19:26.879Z,7.97
2022-10-01T20:22:05.731Z,9.75
2022-10-01T20:25:26.737Z,6.82
2022-10-01T20:28:20.632Z,10.50
2022-10-01T20:31:25.577Z,8.43
2022-10-01T20:34:04.987Z,10.68
2022-10-01T20:36:38.747Z,10.98
2022-10-01T20:39:17.968Z,8.02
2022-10-01T20:41:49.836Z,8.50
2022-10-01T20:44:33.963Z,10.90
2022-10-01T20:47:12.398Z,10.98
2022-10-01T20:49:54.909Z,8.20
2022-10-01T20:52:38.219Z,9.95
2022-10-01T20:55:26.797Z,5.65
2022-10-01T20:58:00.807Z,8.27
2022-10-01T21:00:30.032Z,11.52
2022-10-01T21:03:19.123Z,8.43
2022-10-01T21:05:59.690Z,8.98
2022-10-01T21:08:37.409Z,8.40
2022-10-01T21:11:14.969Z,7.25
2022-10-01T21:13:53.667Z,7.65
2022-10-01T21:16:43.071Z,10.18
2022-10-01T21:19:15.770Z,13.02
2022-10-01T21:22:05.052Z,8.43
2022-10-01T21:24:57.390Z,10.82
2022-10-01T21:28:04.231Z,11.18
2022-10-01T21:31:00.994Z,10.10
2022-10-01T21:33:55.471Z,9.70
2022-10-01T21:36:42.511Z,10.25
2022-10-01T21:39:40.260Z,8.27
2022-10-01T21:42:24.189Z,10.43
2022-10-01T21:45:24.254Z,12.13
2022-10-01T21:47:58.826Z,10.20
2022-10-01T21:50:38.638Z,6.90
2022-10-01T21:53:38.835Z,8.93
2022-10-01T21:56:35.465Z,8.90
2022-10-01T21:59:37.434Z,8.88
2022-10-01T22:02:26.378Z,11.30
2022-10-01T22:05:06.588Z,11.77
2022-10-01T22:07:49.129Z,7.28
2022-10-01T22:10:37.385Z,11.27
2022-10-01T22:13:34.959Z,10.75
2022-10-01T22:16:09.178Z,10.70
2022-10-01T22:18:52.447Z,7.72
2022-10-01T22:21:46.960Z,8.23
2022-10-01T22:24:25.182Z,10.38
2022-10-01T22:27:16.375Z,12.38
2022-10-01T22:30:10.077Z,8.35
2022-10-01T22:33:07.199Z,14.45
2022-10-01T22:35:59.299Z,7.63
2022-10-01T22:38:46.424Z,8.50
2022-10-01T22:41:49.543Z,10.35
2022-10-01T22:44:24.330Z,9.18
2022-10-01T22:47:02.479Z,8.90
2022-10-01T22:49:36.386Z,6.82
2022-10-01T22:52:28.371Z,9.40
2022-10-01T22:55:17.079Z,12.50
2022-10-01T22:58:00.467Z,7.97
2022-10-01T23:00:46.961Z,8.00
2022-10-01T23:03:39.024Z,7.80
2022-10-01T23:06:23.695Z,12.15
2022-10-01T23:09:04.549Z,11.30
2022-10-01T23:11:59.594Z,8.23
2022-10-01T23:14:45.090Z,7.88
2022-10-01T23:17:43.752Z,9.07
2022-10-01T23:20:29.486Z,7.18
2022-10-01T23:23:12.567Z,7.97
2022-10-01T23:26:13.823Z,9.40
2022-10-01T23:28:50.274Z,7.70
2022-10-01T23:31:33.356Z,8.38
2022-10-01T23:34:15.444Z,8.32
2022-10-01T23:37:11.300Z,9.25
2022-10-01T23:39:49.119Z,14.15
2022-10-01T23:42:56.614Z,7.00
2022-10-01T23:45:45.748Z,8.55
2022-10-01T23:48:40.133Z,8.30
2022-10-01T23:51:17.868Z,7.32
2022-10-01T23:54:12.449Z,7.57
2022-10-01T23:56:55.677Z,9.35
2022-10-01T23:59:36.333Z,7.07
